sensor_id;sensor_type;location;lat;lon;timestamp;P1;durP1;ratioP1;P2;durP2;ratioP2
47545;SDS011;50104;52.002;4.688;2022-11-20T00:00:11;15.73;;;8.07;;
47545;SDS011;50104;52.002;4.688;2022-11-20T00:05:13;12.60;;;6.73;;
47545;SDS011;50104;52.002;4.688;2022-11-20T00:10:14;11.93;;;6.73;;
47545;SDS011;50104;52.002;4.688;2022-11-20T00:15:15;13.97;;;7.40;;
47545;SDS011;50104;52.002;4.688;2022-11-20T00:20:16;11.97;;;7.10;;
47545;SDS011;50104;52.002;4.688;2022-11-20T00:25:17;12.47;;;7.53;;
47545;SDS011;50104;52.002;4.688;2022-11-20T00:30:18;14.03;;;8.23;;
47545;SDS011;50104;52.002;4.688;2022-11-20T00:35:18;13.43;;;8.03;;
47545;SDS011;50104;52.002;4.688;2022-11-20T00:40:19;13.33;;;7.60;;
47545;SDS011;50104;52.002;4.688;2022-11-20T00:45:20;13.30;;;7.40;;
47545;SDS011;50104;52.002;4.688;2022-11-20T00:50:21;17.20;;;8.37;;
47545;SDS011;50104;52.002;4.688;2022-11-20T00:55:22;16.73;;;7.90;;
47545;SDS011;50104;52.002;4.688;2022-11-20T01:00:23;13.23;;;7.27;;
47545;SDS011;50104;52.002;4.688;2022-11-20T01:05:23;19.90;;;9.10;;
47545;SDS011;50104;52.002;4.688;2022-11-20T01:10:24;12.90;;;7.60;;
47545;SDS011;50104;52.002;4.688;2022-11-20T01:15:25;15.57;;;7.93;;
47545;SDS011;50104;52.002;4.688;2022-11-20T01:20:26;14.23;;;7.63;;
47545;SDS011;50104;52.002;4.688;2022-11-20T01:25:26;13.00;;;7.63;;
47545;SDS011;50104;52.002;4.688;2022-11-20T01:30:28;14.60;;;8.43;;
47545;SDS011;50104;52.002;4.688;2022-11-20T01:35:29;13.73;;;7.37;;
47545;SDS011;50104;52.002;4.688;2022-11-20T01:40:29;12.20;;;6.97;;
47545;SDS011;50104;52.002;4.688;2022-11-20T01:56:28;15.77;;;7.33;;
47545;SDS011;50104;52.002;4.688;2022-11-20T02:01:34;16.63;;;9.10;;
47545;SDS011;50104;52.002;4.688;2022-11-20T02:06:38;13.13;;;8.03;;
47545;SDS011;50104;52.002;4.688;2022-11-20T02:11:50;17.17;;;8.20;;
47545;SDS011;50104;52.002;4.688;2022-11-20T02:16:52;13.43;;;8.40;;
47545;SDS011;50104;52.002;4.688;2022-11-20T02:27:13;13.98;;;7.70;;
47545;SDS011;50104;52.002;4.688;2022-11-20T02:37:27;12.67;;;7.03;;
47545;SDS011;50104;52.002;4.688;2022-11-20T02:42:33;12.57;;;7.50;;
47545;SDS011;50104;52.002;4.688;2022-11-20T02:47:33;13.17;;;7.37;;
47545;SDS011;50104;52.002;4.688;2022-11-20T02:52:34;11.60;;;7.87;;
47545;SDS011;50104;52.002;4.688;2022-11-20T02:57:35;13.40;;;7.90;;
47545;SDS011;50104;52.002;4.688;2022-11-20T03:02:36;15.43;;;7.20;;
47545;SDS011;50104;52.002;4.688;2022-11-20T03:07:37;13.67;;;7.97;;
47545;SDS011;50104;52.002;4.688;2022-11-20T03:12:39;12.67;;;6.97;;
47545;SDS011;50104;52.002;4.688;2022-11-20T03:17:39;15.57;;;7.47;;
47545;SDS011;50104;52.002;4.688;2022-11-20T03:22:40;13.70;;;7.23;;
47545;SDS011;50104;52.002;4.688;2022-11-20T03:27:41;12.80;;;7.60;;
47545;SDS011;50104;52.002;4.688;2022-11-20T03:32:42;12.03;;;7.50;;
47545;SDS011;50104;52.002;4.688;2022-11-20T03:37:43;14.03;;;7.50;;
47545;SDS011;50104;52.002;4.688;2022-11-20T03:42:47;16.80;;;8.03;;
47545;SDS011;50104;52.002;4.688;2022-11-20T03:47:47;11.90;;;7.80;;
47545;SDS011;50104;52.002;4.688;2022-11-20T03:52:48;15.50;;;8.63;;
47545;SDS011;50104;52.002;4.688;2022-11-20T03:57:49;13.67;;;7.83;;
47545;SDS011;50104;52.002;4.688;2022-11-20T04:02:50;14.87;;;8.03;;
47545;SDS011;50104;52.002;4.688;2022-11-20T04:07:51;19.20;;;8.67;;
47545;SDS011;50104;52.002;4.688;2022-11-20T04:12:51;15.13;;;8.23;;
47545;SDS011;50104;52.002;4.688;2022-11-20T04:17:54;15.40;;;7.67;;
47545;SDS011;50104;52.002;4.688;2022-11-20T04:22:54;17.00;;;8.20;;
47545;SDS011;50104;52.002;4.688;2022-11-20T04:27:55;13.93;;;8.13;;
47545;SDS011;50104;52.002;4.688;2022-11-20T04:32:56;14.33;;;8.30;;
47545;SDS011;50104;52.002;4.688;2022-11-20T04:37:57;17.30;;;8.57;;
47545;SDS011;50104;52.002;4.688;2022-11-20T04:42:58;14.93;;;8.73;;
47545;SDS011;50104;52.002;4.688;2022-11-20T04:47:58;12.07;;;7.93;;
47545;SDS011;50104;52.002;4.688;2022-11-20T04:52:59;12.00;;;8.00;;
47545;SDS011;50104;52.002;4.688;2022-11-20T04:58:00;13.73;;;7.60;;
47545;SDS011;50104;52.002;4.688;2022-11-20T05:03:01;14.80;;;7.80;;
47545;SDS011;50104;52.002;4.688;2022-11-20T05:08:02;13.20;;;8.83;;
47545;SDS011;50104;52.002;4.688;2022-11-20T05:13:04;14.80;;;8.83;;
47545;SDS011;50104;52.002;4.688;2022-11-20T05:18:05;17.53;;;8.20;;
47545;SDS011;50104;52.002;4.688;2022-11-20T05:23:06;18.17;;;9.17;;
47545;SDS011;50104;52.002;4.688;2022-11-20T05:28:06;16.43;;;8.80;;
47545;SDS011;50104;52.002;4.688;2022-11-20T05:33:07;13.83;;;8.50;;
47545;SDS011;50104;52.002;4.688;2022-11-20T05:38:08;14.70;;;7.73;;
47545;SDS011;50104;52.002;4.688;2022-11-20T05:43:09;19.57;;;8.70;;
47545;SDS011;50104;52.002;4.688;2022-11-20T05:48:10;18.07;;;8.53;;
47545;SDS011;50104;52.002;4.688;2022-11-20T05:53:11;14.27;;;8.90;;
47545;SDS011;50104;52.002;4.688;2022-11-20T05:58:11;16.00;;;8.10;;
47545;SDS011;50104;52.002;4.688;2022-11-20T06:03:12;15.70;;;7.97;;
47545;SDS011;50104;52.002;4.688;2022-11-20T06:08:13;19.90;;;10.10;;
47545;SDS011;50104;52.002;4.688;2022-11-20T06:13:14;17.30;;;9.33;;
47545;SDS011;50104;52.002;4.688;2022-11-20T06:18:14;16.57;;;8.43;;
47545;SDS011;50104;52.002;4.688;2022-11-20T06:23:15;17.07;;;8.87;;
47545;SDS011;50104;52.002;4.688;2022-11-20T06:28:16;17.20;;;8.77;;
47545;SDS011;50104;52.002;4.688;2022-11-20T06:33:17;16.47;;;8.67;;
47545;SDS011;50104;52.002;4.688;2022-11-20T06:38:18;19.90;;;9.90;;
47545;SDS011;50104;52.002;4.688;2022-11-20T06:43:19;17.50;;;8.50;;
47545;SDS011;50104;52.002;4.688;2022-11-20T06:48:20;15.23;;;8.23;;
47545;SDS011;50104;52.002;4.688;2022-11-20T06:53:22;14.00;;;7.70;;
47545;SDS011;50104;52.002;4.688;2022-11-20T06:58:25;16.53;;;9.07;;
47545;SDS011;50104;52.002;4.688;2022-11-20T07:03:28;16.93;;;9.03;;
47545;SDS011;50104;52.002;4.688;2022-11-20T07:08:29;15.13;;;8.33;;
47545;SDS011;50104;52.002;4.688;2022-11-20T07:13:30;15.97;;;8.80;;
47545;SDS011;50104;52.002;4.688;2022-11-20T07:18:32;19.30;;;10.07;;
47545;SDS011;50104;52.002;4.688;2022-11-20T07:23:33;17.83;;;9.63;;
47545;SDS011;50104;52.002;4.688;2022-11-20T07:28:35;15.83;;;8.97;;
47545;SDS011;50104;52.002;4.688;2022-11-20T07:33:36;18.80;;;10.10;;
47545;SDS011;50104;52.002;4.688;2022-11-20T07:38:37;17.60;;;9.03;;
47545;SDS011;50104;52.002;4.688;2022-11-20T07:43:38;16.73;;;9.33;;
47545;SDS011;50104;52.002;4.688;2022-11-20T07:48:39;14.83;;;8.20;;
47545;SDS011;50104;52.002;4.688;2022-11-20T07:53:40;19.83;;;10.10;;
47545;SDS011;50104;52.002;4.688;2022-11-20T07:58:40;18.10;;;10.30;;
47545;SDS011;50104;52.002;4.688;2022-11-20T08:03:42;24.90;;;11.03;;
47545;SDS011;50104;52.002;4.688;2022-11-20T08:08:43;19.30;;;10.30;;
47545;SDS011;50104;52.002;4.688;2022-11-20T08:13:44;21.20;;;11.13;;
47545;SDS011;50104;52.002;4.688;2022-11-20T08:19:03;19.50;;;10.07;;
47545;SDS011;50104;52.002;4.688;2022-11-20T08:24:05;18.37;;;11.17;;
47545;SDS011;50104;52.002;4.688;2022-11-20T08:29:07;19.77;;;11.07;;
47545;SDS011;50104;52.002;4.688;2022-11-20T08:34:09;24.77;;;12.33;;
47545;SDS011;50104;52.002;4.688;2022-11-20T08:39:11;21.53;;;11.33;;
47545;SDS011;50104;52.002;4.688;2022-11-20T08:44:12;29.43;;;12.87;;
47545;SDS011;50104;52.002;4.688;2022-11-20T08:49:13;25.40;;;12.90;;
47545;SDS011;50104;52.002;4.688;2022-11-20T08:54:14;23.23;;;10.97;;
47545;SDS011;50104;52.002;4.688;2022-11-20T08:59:17;23.97;;;12.83;;
47545;SDS011;50104;52.002;4.688;2022-11-20T09:04:18;26.37;;;13.40;;
47545;SDS011;50104;52.002;4.688;2022-11-20T09:09:19;18.73;;;11.37;;
47545;SDS011;50104;52.002;4.688;2022-11-20T09:14:20;25.17;;;12.73;;
47545;SDS011;50104;52.002;4.688;2022-11-20T09:19:21;23.90;;;12.97;;
47545;SDS011;50104;52.002;4.688;2022-11-20T09:24:24;18.83;;;10.97;;
47545;SDS011;50104;52.002;4.688;2022-11-20T09:29:24;19.23;;;12.23;;
47545;SDS011;50104;52.002;4.688;2022-11-20T09:34:25;22.50;;;12.43;;
47545;SDS011;50104;52.002;4.688;2022-11-20T09:39:26;22.90;;;12.83;;
47545;SDS011;50104;52.002;4.688;2022-11-20T09:44:48;22.40;;;12.60;;
47545;SDS011;50104;52.002;4.688;2022-11-20T09:55:25;24.43;;;14.10;;
47545;SDS011;50104;52.002;4.688;2022-11-20T10:00:29;23.37;;;13.63;;
47545;SDS011;50104;52.002;4.688;2022-11-20T10:16:30;26.60;;;14.53;;
47545;SDS011;50104;52.002;4.688;2022-11-20T10:32:48;23.17;;;13.37;;
47545;SDS011;50104;52.002;4.688;2022-11-20T10:38:05;24.57;;;13.13;;
47545;SDS011;50104;52.002;4.688;2022-11-20T10:43:28;23.33;;;13.07;;
47545;SDS011;50104;52.002;4.688;2022-11-20T10:48:33;22.77;;;12.97;;
47545;SDS011;50104;52.002;4.688;2022-11-20T11:04:37;26.63;;;13.37;;
47545;SDS011;50104;52.002;4.688;2022-11-20T11:09:49;27.00;;;15.47;;
47545;SDS011;50104;52.002;4.688;2022-11-20T11:14:54;25.17;;;13.97;;
47545;SDS011;50104;52.002;4.688;2022-11-20T11:25:37;23.03;;;14.03;;
47545;SDS011;50104;52.002;4.688;2022-11-20T11:30:42;25.97;;;14.47;;
47545;SDS011;50104;52.002;4.688;2022-11-20T11:35:47;26.13;;;15.03;;
47545;SDS011;50104;52.002;4.688;2022-11-20T11:40:54;26.67;;;15.60;;
47545;SDS011;50104;52.002;4.688;2022-11-20T11:45:57;29.23;;;16.17;;
47545;SDS011;50104;52.002;4.688;2022-11-20T11:50:58;26.87;;;15.00;;
47545;SDS011;50104;52.002;4.688;2022-11-20T11:56:08;25.13;;;14.73;;
47545;SDS011;50104;52.002;4.688;2022-11-20T12:06:48;33.53;;;16.33;;
47545;SDS011;50104;52.002;4.688;2022-11-20T12:12:02;27.73;;;15.67;;
47545;SDS011;50104;52.002;4.688;2022-11-20T12:17:15;31.83;;;14.43;;
47545;SDS011;50104;52.002;4.688;2022-11-20T12:28:24;32.27;;;15.67;;
47545;SDS011;50104;52.002;4.688;2022-11-20T12:39:00;33.13;;;16.17;;
47545;SDS011;50104;52.002;4.688;2022-11-20T12:55:58;35.57;;;15.43;;
47545;SDS011;50104;52.002;4.688;2022-11-20T13:01:34;36.07;;;17.37;;
47545;SDS011;50104;52.002;4.688;2022-11-20T13:06:51;34.33;;;15.47;;
47545;SDS011;50104;52.002;4.688;2022-11-20T13:22:28;31.43;;;14.47;;
47545;SDS011;50104;52.002;4.688;2022-11-20T13:27:47;39.67;;;17.00;;
47545;SDS011;50104;52.002;4.688;2022-11-20T13:32:53;40.77;;;18.63;;
47545;SDS011;50104;52.002;4.688;2022-11-20T13:37:59;31.50;;;16.93;;
47545;SDS011;50104;52.002;4.688;2022-11-20T13:43:10;38.80;;;17.47;;
47545;SDS011;50104;52.002;4.688;2022-11-20T13:48:41;34.70;;;18.00;;
47545;SDS011;50104;52.002;4.688;2022-11-20T13:53:48;38.60;;;17.87;;
47545;SDS011;50104;52.002;4.688;2022-11-20T13:59:23;46.30;;;19.73;;
47545;SDS011;50104;52.002;4.688;2022-11-20T14:04:45;40.90;;;19.97;;
47545;SDS011;50104;52.002;4.688;2022-11-20T14:09:51;40.57;;;18.73;;
47545;SDS011;50104;52.002;4.688;2022-11-20T14:14:54;42.50;;;19.20;;
47545;SDS011;50104;52.002;4.688;2022-11-20T14:19:58;41.17;;;18.03;;
47545;SDS011;50104;52.002;4.688;2022-11-20T14:35:26;36.27;;;17.93;;
47545;SDS011;50104;52.002;4.688;2022-11-20T14:40:35;39.90;;;17.50;;
47545;SDS011;50104;52.002;4.688;2022-11-20T14:45:36;39.27;;;16.00;;
47545;SDS011;50104;52.002;4.688;2022-11-20T14:50:38;40.50;;;17.73;;
47545;SDS011;50104;52.002;4.688;2022-11-20T14:55:40;41.67;;;18.53;;
47545;SDS011;50104;52.002;4.688;2022-11-20T15:00:41;39.53;;;17.73;;
47545;SDS011;50104;52.002;4.688;2022-11-20T15:05:54;23.47;;;10.67;;
47545;SDS011;50104;52.002;4.688;2022-11-20T15:10:55;34.57;;;15.97;;
47545;SDS011;50104;52.002;4.688;2022-11-20T15:15:57;35.60;;;17.20;;
47545;SDS011;50104;52.002;4.688;2022-11-20T15:21:01;37.77;;;17.47;;
47545;SDS011;50104;52.002;4.688;2022-11-20T15:26:07;33.87;;;16.67;;
47545;SDS011;50104;52.002;4.688;2022-11-20T15:31:14;36.00;;;16.47;;
47545;SDS011;50104;52.002;4.688;2022-11-20T15:36:22;40.37;;;18.37;;
47545;SDS011;50104;52.002;4.688;2022-11-20T15:41:23;32.60;;;16.50;;
47545;SDS011;50104;52.002;4.688;2022-11-20T15:46:25;31.07;;;16.40;;
47545;SDS011;50104;52.002;4.688;2022-11-20T15:56:32;30.87;;;15.43;;
47545;SDS011;50104;52.002;4.688;2022-11-20T16:01:33;24.57;;;12.77;;
47545;SDS011;50104;52.002;4.688;2022-11-20T16:06:34;26.37;;;14.60;;
47545;SDS011;50104;52.002;4.688;2022-11-20T16:11:35;38.20;;;17.53;;
47545;SDS011;50104;52.002;4.688;2022-11-20T16:16:37;26.83;;;13.70;;
47545;SDS011;50104;52.002;4.688;2022-11-20T16:21:40;37.77;;;16.03;;
47545;SDS011;50104;52.002;4.688;2022-11-20T16:26:42;34.67;;;16.90;;
47545;SDS011;50104;52.002;4.688;2022-11-20T16:31:43;34.10;;;17.43;;
47545;SDS011;50104;52.002;4.688;2022-11-20T16:36:44;34.87;;;16.97;;
47545;SDS011;50104;52.002;4.688;2022-11-20T16:41:45;32.27;;;14.40;;
47545;SDS011;50104;52.002;4.688;2022-11-20T16:46:46;30.47;;;16.00;;
47545;SDS011;50104;52.002;4.688;2022-11-20T16:51:46;28.67;;;15.87;;
47545;SDS011;50104;52.002;4.688;2022-11-20T16:56:47;29.50;;;15.80;;
47545;SDS011;50104;52.002;4.688;2022-11-20T17:01:50;32.67;;;15.20;;
47545;SDS011;50104;52.002;4.688;2022-11-20T17:06:50;28.10;;;15.40;;
47545;SDS011;50104;52.002;4.688;2022-11-20T17:11:51;25.53;;;13.67;;
47545;SDS011;50104;52.002;4.688;2022-11-20T17:16:52;26.67;;;13.43;;
47545;SDS011;50104;52.002;4.688;2022-11-20T17:21:53;28.03;;;15.27;;
47545;SDS011;50104;52.002;4.688;2022-11-20T17:26:54;22.87;;;14.13;;
47545;SDS011;50104;52.002;4.688;2022-11-20T17:31:55;25.60;;;13.90;;
47545;SDS011;50104;52.002;4.688;2022-11-20T17:36:57;22.50;;;12.83;;
47545;SDS011;50104;52.002;4.688;2022-11-20T17:41:58;20.37;;;11.47;;
47545;SDS011;50104;52.002;4.688;2022-11-20T17:47:21;19.80;;;12.60;;
47545;SDS011;50104;52.002;4.688;2022-11-20T17:52:22;24.27;;;13.27;;
47545;SDS011;50104;52.002;4.688;2022-11-20T17:57:24;23.67;;;12.77;;
47545;SDS011;50104;52.002;4.688;2022-11-20T18:02:44;19.27;;;12.90;;
47545;SDS011;50104;52.002;4.688;2022-11-20T18:07:45;23.40;;;14.03;;
47545;SDS011;50104;52.002;4.688;2022-11-20T18:12:46;21.87;;;12.93;;
47545;SDS011;50104;52.002;4.688;2022-11-20T18:17:47;17.53;;;12.03;;
47545;SDS011;50104;52.002;4.688;2022-11-20T18:22:48;23.57;;;13.87;;
47545;SDS011;50104;52.002;4.688;2022-11-20T18:27:48;22.73;;;14.07;;
47545;SDS011;50104;52.002;4.688;2022-11-20T18:32:49;20.27;;;12.37;;
47545;SDS011;50104;52.002;4.688;2022-11-20T18:37:50;20.57;;;12.57;;
47545;SDS011;50104;52.002;4.688;2022-11-20T18:42:51;26.80;;;14.53;;
47545;SDS011;50104;52.002;4.688;2022-11-20T18:48:10;25.93;;;15.43;;
47545;SDS011;50104;52.002;4.688;2022-11-20T18:53:11;21.63;;;13.93;;
47545;SDS011;50104;52.002;4.688;2022-11-20T18:58:12;22.20;;;13.73;;
47545;SDS011;50104;52.002;4.688;2022-11-20T19:03:13;21.23;;;13.60;;
47545;SDS011;50104;52.002;4.688;2022-11-20T19:08:14;21.00;;;13.57;;
47545;SDS011;50104;52.002;4.688;2022-11-20T19:13:15;21.90;;;13.80;;
47545;SDS011;50104;52.002;4.688;2022-11-20T19:18:16;19.70;;;12.50;;
47545;SDS011;50104;52.002;4.688;2022-11-20T19:23:17;21.30;;;13.00;;
47545;SDS011;50104;52.002;4.688;2022-11-20T19:28:21;21.40;;;14.70;;
47545;SDS011;50104;52.002;4.688;2022-11-20T19:33:22;20.03;;;13.63;;
47545;SDS011;50104;52.002;4.688;2022-11-20T19:38:23;23.87;;;12.97;;
47545;SDS011;50104;52.002;4.688;2022-11-20T19:43:24;20.03;;;12.40;;
47545;SDS011;50104;52.002;4.688;2022-11-20T19:48:25;20.37;;;12.23;;
47545;SDS011;50104;52.002;4.688;2022-11-20T19:53:26;21.27;;;11.93;;
47545;SDS011;50104;52.002;4.688;2022-11-20T19:58:29;20.57;;;12.10;;
47545;SDS011;50104;52.002;4.688;2022-11-20T20:03:30;21.20;;;13.03;;
47545;SDS011;50104;52.002;4.688;2022-11-20T20:08:31;22.30;;;13.47;;
47545;SDS011;50104;52.002;4.688;2022-11-20T20:13:33;21.73;;;12.57;;
47545;SDS011;50104;52.002;4.688;2022-11-20T20:18:33;23.87;;;13.77;;
47545;SDS011;50104;52.002;4.688;2022-11-20T20:23:35;25.47;;;14.97;;
47545;SDS011;50104;52.002;4.688;2022-11-20T20:28:36;20.23;;;13.57;;
47545;SDS011;50104;52.002;4.688;2022-11-20T20:33:37;24.87;;;15.10;;
47545;SDS011;50104;52.002;4.688;2022-11-20T20:38:39;25.47;;;15.70;;
47545;SDS011;50104;52.002;4.688;2022-11-20T20:43:41;21.87;;;13.00;;
47545;SDS011;50104;52.002;4.688;2022-11-20T20:49:00;23.23;;;12.53;;
47545;SDS011;50104;52.002;4.688;2022-11-20T20:54:01;21.07;;;13.63;;
47545;SDS011;50104;52.002;4.688;2022-11-20T20:59:03;25.27;;;14.93;;
47545;SDS011;50104;52.002;4.688;2022-11-20T21:04:04;24.30;;;14.33;;
47545;SDS011;50104;52.002;4.688;2022-11-20T21:09:05;22.97;;;14.37;;
47545;SDS011;50104;52.002;4.688;2022-11-20T21:14:06;26.33;;;13.97;;
47545;SDS011;50104;52.002;4.688;2022-11-20T21:19:06;25.67;;;13.83;;
47545;SDS011;50104;52.002;4.688;2022-11-20T21:24:07;28.87;;;15.03;;
47545;SDS011;50104;52.002;4.688;2022-11-20T21:29:08;33.67;;;14.93;;
47545;SDS011;50104;52.002;4.688;2022-11-20T21:34:12;30.77;;;13.93;;
47545;SDS011;50104;52.002;4.688;2022-11-20T21:39:14;39.20;;;14.00;;
47545;SDS011;50104;52.002;4.688;2022-11-20T21:44:16;29.63;;;12.93;;
47545;SDS011;50104;52.002;4.688;2022-11-20T21:49:17;36.73;;;14.27;;
47545;SDS011;50104;52.002;4.688;2022-11-20T21:54:18;25.23;;;13.20;;
47545;SDS011;50104;52.002;4.688;2022-11-20T21:59:20;28.27;;;13.17;;
47545;SDS011;50104;52.002;4.688;2022-11-20T22:04:21;32.17;;;14.80;;
47545;SDS011;50104;52.002;4.688;2022-11-20T22:09:22;32.93;;;14.73;;
47545;SDS011;50104;52.002;4.688;2022-11-20T22:14:23;29.33;;;13.50;;
47545;SDS011;50104;52.002;4.688;2022-11-20T22:19:24;35.10;;;14.00;;
47545;SDS011;50104;52.002;4.688;2022-11-20T22:24:25;26.97;;;14.07;;
47545;SDS011;50104;52.002;4.688;2022-11-20T22:29:26;31.13;;;14.63;;
47545;SDS011;50104;52.002;4.688;2022-11-20T22:34:26;36.53;;;15.20;;
47545;SDS011;50104;52.002;4.688;2022-11-20T22:39:27;28.20;;;13.60;;
47545;SDS011;50104;52.002;4.688;2022-11-20T22:44:28;26.33;;;14.03;;
47545;SDS011;50104;52.002;4.688;2022-11-20T22:49:29;30.30;;;14.30;;
47545;SDS011;50104;52.002;4.688;2022-11-20T22:54:30;30.87;;;13.63;;
47545;SDS011;50104;52.002;4.688;2022-11-20T22:59:30;29.83;;;13.20;;
47545;SDS011;50104;52.002;4.688;2022-11-20T23:04:31;27.97;;;13.87;;
47545;SDS011;50104;52.002;4.688;2022-11-20T23:09:32;30.13;;;13.73;;
47545;SDS011;50104;52.002;4.688;2022-11-20T23:14:33;25.07;;;13.70;;
47545;SDS011;50104;52.002;4.688;2022-11-20T23:19:35;26.20;;;13.10;;
47545;SDS011;50104;52.002;4.688;2022-11-20T23:24:36;27.00;;;13.27;;
47545;SDS011;50104;52.002;4.688;2022-11-20T23:29:36;25.10;;;12.40;;
47545;SDS011;50104;52.002;4.688;2022-11-20T23:34:37;20.87;;;13.13;;
47545;SDS011;50104;52.002;4.688;2022-11-20T23:39:38;25.13;;;13.73;;
47545;SDS011;50104;52.002;4.688;2022-11-20T23:44:39;22.87;;;13.87;;
47545;SDS011;50104;52.002;4.688;2022-11-20T23:49:39;22.20;;;13.17;;
47545;SDS011;50104;52.002;4.688;2022-11-20T23:54:40;25.33;;;13.33;;
47545;SDS011;50104;52.002;4.688;2022-11-20T23:59:43;21.77;;;13.47;;
